createdAt,value
2022-09-11T00:01:33.730Z,4.25
2022-09-11T00:04:02.905Z,2.30
2022-09-11T00:06:31.132Z,3.83
2022-09-11T00:09:05.618Z,4.22
2022-09-11T00:11:40.483Z,4.55
2022-09-11T00:16:41.573Z,3.88
2022-09-11T00:19:17.690Z,4.55
2022-09-11T00:21:45.526Z,3.30
2022-09-11T00:24:12.653Z,5.03
2022-09-11T00:26:42.359Z,3.13
2022-09-11T00:29:10.113Z,4.85
2022-09-11T00:31:37.663Z,4.00
2022-09-11T00:34:04.772Z,4.68
2022-09-11T00:36:32.371Z,3.65
2022-09-11T00:39:00.125Z,5.10
2022-09-11T00:41:34.350Z,4.45
2022-09-11T00:44:02.797Z,2.50
2022-09-11T00:46:48.554Z,6.03
2022-09-11T00:49:24.478Z,4.50
2022-09-11T00:52:00.465Z,2.78
2022-09-11T00:54:33.933Z,3.58
2022-09-11T00:57:06.428Z,2.90
2022-09-11T00:59:34.493Z,4.03
2022-09-11T01:02:02.219Z,3.13
2022-09-11T01:04:29.480Z,5.25
2022-09-11T01:06:59.901Z,2.65
2022-09-11T01:09:30.350Z,4.95
2022-09-11T01:12:12.234Z,3.67
2022-09-11T01:15:03.776Z,3.47
2022-09-11T01:17:52.121Z,4.68
2022-09-11T01:20:43.297Z,3.92
2022-09-11T01:23:55.091Z,2.72
2022-09-11T01:26:42.626Z,4.43
2022-09-11T01:29:45.705Z,4.45
2022-09-11T01:33:12.743Z,3.88
2022-09-11T01:36:10.111Z,3.70
2022-09-11T01:38:49.630Z,3.95
2022-09-11T01:41:31.767Z,5.90
2022-09-11T01:44:07.334Z,8.10
2022-09-11T01:46:42.843Z,5.32
2022-09-11T01:49:32.554Z,5.43
2022-09-11T01:52:05.202Z,3.08
2022-09-11T01:54:46.274Z,5.28
2022-09-11T01:57:29.437Z,4.70
2022-09-11T02:00:08.185Z,3.75
2022-09-11T02:02:59.436Z,4.57
2022-09-11T02:05:33.935Z,4.80
2022-09-11T02:08:17.069Z,5.03
2022-09-11T02:10:54.911Z,7.82
2022-09-11T02:13:30.546Z,3.15
2022-09-11T02:16:19.111Z,3.70
2022-09-11T02:19:11.340Z,5.57
2022-09-11T02:21:38.528Z,4.05
2022-09-11T02:24:09.415Z,2.45
2022-09-11T02:26:44.862Z,6.70
2022-09-11T02:29:13.874Z,6.80
2022-09-11T02:31:42.219Z,3.42
2022-09-11T02:34:13.095Z,5.15
2022-09-11T02:37:01.077Z,4.30
2022-09-11T02:39:55.485Z,4.95
2022-09-11T02:42:43.209Z,8.35
2022-09-11T02:45:42.842Z,6.70
2022-09-11T02:48:56.122Z,4.07
2022-09-11T02:51:51.997Z,3.97
2022-09-11T02:54:45.859Z,3.60
2022-09-11T02:57:33.062Z,5.40
2022-09-11T03:00:09.070Z,3.50
2022-09-11T03:02:41.930Z,4.95
2022-09-11T03:05:11.151Z,4.35
2022-09-11T03:07:40.556Z,4.15
2022-09-11T03:10:11.140Z,4.43
2022-09-11T03:12:39.786Z,4.05
2022-09-11T03:15:10.405Z,3.40
2022-09-11T03:17:38.193Z,4.53
2022-09-11T03:20:06.610Z,3.17
2022-09-11T03:22:33.594Z,4.55
2022-09-11T03:25:00.854Z,3.28
2022-09-11T03:27:30.595Z,5.38
2022-09-11T03:29:58.587Z,4.50
2022-09-11T03:32:25.517Z,4.75
2022-09-11T03:34:52.527Z,2.90
2022-09-11T03:37:19.415Z,4.07
2022-09-11T03:39:48.247Z,5.38
2022-09-11T03:42:15.841Z,4.97
2022-09-11T03:44:42.836Z,6.80
2022-09-11T03:47:12.321Z,4.53
2022-09-11T03:49:39.776Z,3.97
2022-09-11T03:52:06.889Z,2.70
2022-09-11T03:54:34.400Z,2.97
2022-09-11T03:57:01.875Z,3.72
2022-09-11T03:59:29.265Z,4.38
2022-09-11T04:01:56.238Z,5.95
2022-09-11T04:04:24.074Z,3.20
2022-09-11T04:06:51.480Z,3.03
2022-09-11T04:09:18.946Z,4.18
2022-09-11T04:11:47.994Z,3.72
2022-09-11T04:14:22.505Z,4.10
2022-09-11T04:16:50.028Z,3.67
2022-09-11T04:19:18.763Z,6.40
2022-09-11T04:21:45.768Z,3.00
2022-09-11T04:24:13.277Z,4.20
2022-09-11T04:26:40.176Z,3.53
2022-09-11T04:29:18.832Z,4.80
2022-09-11T04:31:46.838Z,3.35
2022-09-11T04:34:15.371Z,3.15
2022-09-11T04:36:42.574Z,4.15
2022-09-11T04:39:13.905Z,4.38
2022-09-11T04:41:41.263Z,3.88
2022-09-11T04:44:08.439Z,5.90
2022-09-11T04:46:41.469Z,7.57
2022-09-11T04:49:11.383Z,7.57
2022-09-11T04:51:40.613Z,5.53
2022-09-11T04:54:15.780Z,3.50
2022-09-11T04:56:42.748Z,5.40
2022-09-11T04:59:22.277Z,3.83
2022-09-11T05:02:03.153Z,3.78
2022-09-11T05:04:31.338Z,6.05
2022-09-11T05:06:59.513Z,3.58
2022-09-11T05:09:27.717Z,3.85
2022-09-11T05:11:56.153Z,4.43
2022-09-11T05:14:25.436Z,4.63
2022-09-11T05:16:54.922Z,4.80
2022-09-11T05:19:25.568Z,2.83
2022-09-11T05:21:52.502Z,5.53
2022-09-11T05:24:20.232Z,2.63
2022-09-11T05:26:47.183Z,3.47
2022-09-11T05:29:15.985Z,4.78
2022-09-11T05:32:00.468Z,5.10
2022-09-11T05:34:29.480Z,22.42
2022-09-11T05:36:57.756Z,10.65
2022-09-11T05:39:27.858Z,8.77
2022-09-11T05:41:55.762Z,5.20
2022-09-11T05:44:26.126Z,3.88
2022-09-11T05:46:53.170Z,4.60
2022-09-11T05:49:21.780Z,4.90
2022-09-11T05:51:48.683Z,5.07
2022-09-11T05:54:15.813Z,4.93
2022-09-11T05:56:44.443Z,5.20
2022-09-11T05:59:17.373Z,3.50
2022-09-11T06:01:47.918Z,5.88
2022-09-11T06:04:28.054Z,4.70
2022-09-11T06:06:57.355Z,6.35
2022-09-11T06:09:24.393Z,8.57
2022-09-11T06:11:53.315Z,9.85
2022-09-11T06:14:21.497Z,9.45
2022-09-11T06:16:49.935Z,6.28
2022-09-11T06:19:16.903Z,9.23
2022-09-11T06:21:45.063Z,7.90
2022-09-11T06:24:22.885Z,10.07
2022-09-11T06:26:50.251Z,5.63
2022-09-11T06:29:17.863Z,7.90
2022-09-11T06:31:51.282Z,9.18
2022-09-11T06:34:21.749Z,8.80
2022-09-11T06:36:51.874Z,8.63
2022-09-11T06:39:23.183Z,8.98
2022-09-11T06:41:51.251Z,10.75
2022-09-11T06:44:21.014Z,9.30
2022-09-11T06:46:48.079Z,11.75
2022-09-11T06:49:15.136Z,10.55
2022-09-11T06:54:28.607Z,10.48
2022-09-11T06:56:56.868Z,8.57
2022-09-11T06:59:24.556Z,10.82
2022-09-11T07:01:52.430Z,10.48
2022-09-11T07:04:21.068Z,9.82
2022-09-11T07:06:50.339Z,9.60
2022-09-11T07:09:18.110Z,10.40
2022-09-11T07:11:51.336Z,10.65
2022-09-11T07:14:23.567Z,10.43
2022-09-11T07:19:25.386Z,11.25
2022-09-11T07:21:52.333Z,10.80
2022-09-11T07:24:20.703Z,10.45
2022-09-11T07:26:48.301Z,11.80
2022-09-11T07:29:25.153Z,11.02
2022-09-11T07:31:52.018Z,11.10
2022-09-11T07:34:19.323Z,8.73
2022-09-11T07:36:51.649Z,8.23
2022-09-11T07:39:19.385Z,9.30
2022-09-11T07:41:52.992Z,7.93
2022-09-11T07:44:25.063Z,8.93
2022-09-11T07:46:53.017Z,7.93
2022-09-11T07:49:20.290Z,7.25
2022-09-11T07:51:47.293Z,9.30
2022-09-11T07:54:19.973Z,9.18
2022-09-11T07:56:48.730Z,7.85
2022-09-11T07:59:18.074Z,9.98
2022-09-11T08:01:46.621Z,8.90
2022-09-11T08:04:14.657Z,8.95
2022-09-11T08:06:43.674Z,8.57
2022-09-11T08:11:49.458Z,9.13
2022-09-11T08:14:18.441Z,7.20
2022-09-11T08:16:48.451Z,6.15
2022-09-11T08:19:20.844Z,8.00
2022-09-11T08:21:52.926Z,9.07
2022-09-11T08:24:21.444Z,8.30
2022-09-11T08:26:50.796Z,28.50
2022-09-11T08:29:19.279Z,21.20
2022-09-11T08:31:47.574Z,7.25
2022-09-11T08:34:16.001Z,7.97
2022-09-11T08:36:43.447Z,9.02
2022-09-11T08:39:11.164Z,9.70
2022-09-11T08:41:54.457Z,11.23
2022-09-11T08:44:38.951Z,10.95
2022-09-11T08:47:35.679Z,11.35
2022-09-11T08:50:36.062Z,15.55
2022-09-11T08:53:04.338Z,13.98
2022-09-11T08:55:43.692Z,19.02
2022-09-11T08:58:48.404Z,17.95
2022-09-11T09:01:38.766Z,19.52
2022-09-11T09:04:27.267Z,19.50
2022-09-11T09:07:15.570Z,20.23
2022-09-11T09:10:03.625Z,25.05
2022-09-11T09:12:53.412Z,17.75
2022-09-11T09:15:45.214Z,26.65
2022-09-11T09:18:55.403Z,19.65
2022-09-11T09:21:37.024Z,21.77
2022-09-11T09:24:19.264Z,26.85
2022-09-11T09:26:57.037Z,21.92
2022-09-11T09:29:31.709Z,27.98
2022-09-11T09:32:11.275Z,19.83
2022-09-11T09:34:41.964Z,19.63
2022-09-11T09:37:26.414Z,23.60
2022-09-11T09:39:54.939Z,22.25
2022-09-11T09:43:21.281Z,29.98
2022-09-11T09:46:14.185Z,22.27
2022-09-11T09:48:42.037Z,21.23
2022-09-11T09:51:15.335Z,22.13
2022-09-11T09:54:01.165Z,22.65
2022-09-11T09:56:31.669Z,20.42
2022-09-11T09:59:26.854Z,19.75
2022-09-11T10:01:55.230Z,20.92
2022-09-11T10:04:28.041Z,20.95
2022-09-11T10:07:14.175Z,21.48
2022-09-11T10:09:52.158Z,22.83
2022-09-11T10:12:26.621Z,19.50
2022-09-11T10:15:03.127Z,19.63
2022-09-11T10:17:34.021Z,16.75
2022-09-11T10:20:18.485Z,23.00
2022-09-11T10:22:50.242Z,21.35
2022-09-11T10:25:26.725Z,19.48
2022-09-11T10:28:04.751Z,23.40
2022-09-11T10:30:55.432Z,24.65
2022-09-11T10:33:39.557Z,24.02
2022-09-11T10:36:09.998Z,23.98
2022-09-11T10:38:47.931Z,23.17
2022-09-11T10:41:18.929Z,21.52
2022-09-11T10:44:04.292Z,25.42
2022-09-11T10:49:23.266Z,19.45
2022-09-11T10:52:22.087Z,17.15
2022-09-11T10:55:09.621Z,19.80
2022-09-11T10:57:55.166Z,17.33
2022-09-11T11:00:40.412Z,16.60
2022-09-11T11:06:08.325Z,18.20
2022-09-11T11:08:55.115Z,17.42
2022-09-11T11:11:46.299Z,16.55
2022-09-11T11:14:39.425Z,17.33
2022-09-11T11:17:38.031Z,16.63
2022-09-11T11:20:32.097Z,15.57
2022-09-11T11:23:24.489Z,15.20
2022-09-11T11:26:15.121Z,20.35
2022-09-11T11:28:54.687Z,15.30
2022-09-11T11:31:21.463Z,21.17
2022-09-11T11:34:12.937Z,17.05
2022-09-11T11:36:58.448Z,15.18
2022-09-11T11:39:41.033Z,18.60
2022-09-11T11:42:21.916Z,17.83
2022-09-11T11:45:01.790Z,18.63
2022-09-11T11:47:43.046Z,16.02
2022-09-11T11:50:33.434Z,21.02
2022-09-11T11:53:35.376Z,17.33
2022-09-11T11:56:45.550Z,16.42
2022-09-11T11:59:31.187Z,20.50
2022-09-11T12:02:27.681Z,14.38
2022-09-11T12:05:02.156Z,14.30
2022-09-11T12:07:37.225Z,16.60
2022-09-11T12:10:07.897Z,12.13
2022-09-11T12:13:12.418Z,10.18
2022-09-11T12:15:39.629Z,10.90
2022-09-11T12:18:12.206Z,11.60
2022-09-11T12:20:45.252Z,10.98
2022-09-11T12:23:47.290Z,10.80
2022-09-11T12:26:30.467Z,10.88
2022-09-11T12:29:13.962Z,9.50
2022-09-11T12:31:49.981Z,9.50
2022-09-11T12:34:26.171Z,11.13
2022-09-11T12:36:57.856Z,9.98
2022-09-11T12:39:40.051Z,10.38
2022-09-11T12:42:25.435Z,9.95
2022-09-11T12:44:52.311Z,12.90
2022-09-11T12:47:28.445Z,10.98
2022-09-11T12:50:06.063Z,9.68
2022-09-11T12:52:46.386Z,9.77
2022-09-11T12:55:31.535Z,12.35
2022-09-11T13:00:43.633Z,12.45
2022-09-11T13:03:23.657Z,14.02
2022-09-11T13:06:09.434Z,11.43
2022-09-11T13:08:59.918Z,11.32
2022-09-11T13:11:49.384Z,13.80
2022-09-11T13:14:28.140Z,12.25
2022-09-11T13:16:57.022Z,11.30
2022-09-11T13:19:35.919Z,10.65
2022-09-11T13:22:23.568Z,12.65
2022-09-11T13:25:03.893Z,10.80
2022-09-11T13:27:30.996Z,10.93
2022-09-11T13:30:01.739Z,10.00
2022-09-11T13:32:29.269Z,11.70
2022-09-11T13:35:01.810Z,11.18
2022-09-11T13:38:16.693Z,9.05
2022-09-11T13:40:47.545Z,11.65
2022-09-11T13:43:29.689Z,8.93
2022-09-11T13:46:23.513Z,10.63
2022-09-11T13:48:57.019Z,9.23
2022-09-11T13:51:29.762Z,9.55
2022-09-11T13:54:15.728Z,10.30
2022-09-11T13:56:54.759Z,9.52
2022-09-11T13:59:44.900Z,6.80
2022-09-11T14:02:40.712Z,8.52
2022-09-11T14:05:22.741Z,10.98
2022-09-11T14:08:10.345Z,7.60
2022-09-11T14:10:43.205Z,6.82
2022-09-11T14:13:21.946Z,9.27
2022-09-11T14:15:55.662Z,7.43
2022-09-11T14:18:36.244Z,6.80
2022-09-11T14:21:14.101Z,8.38
2022-09-11T14:23:54.628Z,5.78
2022-09-11T14:26:41.594Z,8.40
2022-09-11T14:29:12.360Z,6.10
2022-09-11T14:31:46.964Z,5.85
2022-09-11T14:34:33.328Z,8.98
2022-09-11T14:37:12.260Z,7.53
2022-09-11T14:39:49.276Z,4.15
2022-09-11T14:42:21.500Z,5.95
2022-09-11T14:44:49.259Z,4.88
2022-09-11T14:47:23.167Z,11.45
2022-09-11T14:49:53.600Z,5.30
2022-09-11T14:52:24.641Z,6.07
2022-09-11T14:54:52.407Z,6.20
2022-09-11T14:57:23.909Z,6.15
2022-09-11T14:59:52.480Z,7.65
2022-09-11T15:02:23.382Z,7.05
2022-09-11T15:04:53.405Z,8.52
2022-09-11T15:07:24.710Z,6.13
2022-09-11T15:09:53.490Z,5.32
2022-09-11T15:12:22.203Z,6.95
2022-09-11T15:14:57.030Z,8.05
2022-09-11T15:17:25.445Z,6.43
2022-09-11T15:19:53.400Z,6.60
2022-09-11T15:22:20.840Z,7.43
2022-09-11T15:24:48.839Z,7.57
2022-09-11T15:27:15.841Z,6.63
2022-09-11T15:29:42.845Z,7.38
2022-09-11T15:32:10.516Z,5.68
2022-09-11T15:34:39.813Z,5.78
2022-09-11T15:37:06.662Z,6.72
2022-09-11T15:39:33.995Z,5.28
2022-09-11T15:42:02.120Z,5.70
2022-09-11T15:44:29.808Z,6.50
2022-09-11T15:46:59.237Z,6.43
2022-09-11T15:49:30.037Z,6.68
2022-09-11T15:51:58.922Z,5.47
2022-09-11T15:54:27.397Z,5.75
2022-09-11T15:56:54.558Z,7.68
2022-09-11T15:59:21.954Z,6.35
2022-09-11T16:01:49.866Z,7.90
2022-09-11T16:04:21.241Z,7.93
2022-09-11T16:06:50.198Z,8.20
2022-09-11T16:09:24.804Z,6.43
2022-09-11T16:14:32.822Z,5.63
2022-09-11T16:17:02.275Z,5.97
2022-09-11T16:19:30.471Z,6.25
2022-09-11T16:22:01.188Z,6.40
2022-09-11T16:24:31.100Z,6.65
2022-09-11T16:26:58.337Z,6.53
2022-09-11T16:29:42.891Z,7.22
2022-09-11T16:32:28.323Z,5.10
2022-09-11T16:34:57.192Z,6.20
2022-09-11T16:37:24.267Z,6.32
2022-09-11T16:39:51.262Z,8.05
2022-09-11T16:42:21.046Z,7.60
2022-09-11T16:44:49.389Z,6.00
2022-09-11T16:47:17.943Z,6.35
2022-09-11T16:52:34.751Z,6.22
2022-09-11T16:55:01.763Z,6.60
2022-09-11T16:57:28.922Z,8.13
2022-09-11T17:00:01.109Z,7.47
2022-09-11T17:02:28.024Z,10.32
2022-09-11T17:04:54.872Z,6.78
2022-09-11T17:07:21.799Z,8.30
2022-09-11T17:09:48.743Z,7.93
2022-09-11T17:12:17.691Z,6.45
2022-09-11T17:14:44.664Z,7.07
2022-09-11T17:17:11.572Z,9.45
2022-09-11T17:19:38.516Z,7.53
2022-09-11T17:22:05.448Z,7.43
2022-09-11T17:24:32.491Z,7.25
2022-09-11T17:26:59.467Z,6.78
2022-09-11T17:29:26.316Z,6.65
2022-09-11T17:32:16.683Z,8.38
2022-09-11T17:34:42.449Z,8.32
2022-09-11T17:37:10.046Z,10.20
2022-09-11T17:39:36.982Z,8.95
2022-09-11T17:42:04.113Z,8.95
2022-09-11T17:44:30.969Z,9.38
2022-09-11T17:47:02.197Z,7.88
2022-09-11T17:49:32.136Z,8.00
2022-09-11T17:51:59.100Z,8.80
2022-09-11T17:54:27.785Z,9.30
2022-09-11T17:56:55.710Z,8.35
2022-09-11T17:59:23.535Z,8.73
2022-09-11T18:01:51.000Z,7.50
2022-09-11T18:04:18.251Z,9.52
2022-09-11T18:06:45.385Z,10.98
2022-09-11T18:09:19.506Z,9.40
2022-09-11T18:11:50.502Z,7.72
2022-09-11T18:14:20.462Z,10.02
2022-09-11T18:16:47.919Z,9.20
2022-09-11T18:19:17.955Z,9.55
2022-09-11T18:21:49.382Z,9.30
2022-09-11T18:24:20.506Z,8.18
2022-09-11T18:26:58.535Z,9.48
2022-09-11T18:29:30.323Z,7.35
2022-09-11T18:31:59.879Z,9.27
2022-09-11T18:34:28.810Z,8.90
2022-09-11T18:36:55.992Z,327.42
2022-09-11T18:39:23.436Z,14.65
2022-09-11T18:41:52.722Z,14.95
2022-09-11T18:44:22.622Z,22.50
2022-09-11T18:46:54.321Z,35.25
2022-09-11T18:49:21.984Z,24.15
2022-09-11T18:51:49.224Z,20.40
2022-09-11T18:54:21.034Z,26.40
2022-09-11T18:56:50.414Z,46.72
2022-09-11T18:59:20.308Z,22.98
2022-09-11T19:01:47.502Z,16.15
2022-09-11T19:04:16.391Z,28.58
2022-09-11T19:06:45.185Z,28.48
2022-09-11T19:09:13.547Z,41.72
2022-09-11T19:11:41.724Z,29.13
2022-09-11T19:14:12.072Z,38.33
2022-09-11T19:16:40.297Z,31.73
2022-09-11T19:19:08.818Z,42.03
2022-09-11T19:21:38.476Z,39.45
2022-09-11T19:24:07.016Z,25.17
2022-09-11T19:26:38.941Z,37.97
2022-09-11T19:29:08.861Z,37.22
2022-09-11T19:31:37.249Z,43.22
2022-09-11T19:34:04.723Z,37.50
2022-09-11T19:36:35.457Z,35.28
2022-09-11T19:39:03.515Z,50.50
2022-09-11T19:41:34.276Z,41.78
2022-09-11T19:44:04.158Z,32.10
2022-09-11T19:46:34.218Z,43.80
2022-09-11T19:49:05.690Z,47.00
2022-09-11T19:51:42.192Z,47.85
2022-09-11T19:54:12.493Z,48.78
2022-09-11T19:56:40.429Z,47.92
2022-09-11T19:59:08.997Z,52.53
2022-09-11T20:01:36.068Z,52.80
2022-09-11T20:04:03.896Z,52.17
2022-09-11T20:06:34.249Z,72.95
2022-09-11T20:09:29.354Z,48.15
2022-09-11T20:11:49.559Z,61.80
2022-09-11T20:14:16.828Z,55.78
2022-09-11T20:16:44.127Z,52.42
2022-09-11T20:19:11.432Z,62.17
2022-09-11T20:21:39.314Z,48.40
2022-09-11T20:24:07.368Z,65.57
2022-09-11T20:26:34.973Z,54.30
2022-09-11T20:29:08.960Z,64.30
2022-09-11T20:31:47.476Z,71.63
2022-09-11T20:34:18.083Z,58.53
2022-09-11T20:36:46.196Z,50.67
2022-09-11T20:39:15.990Z,71.50
2022-09-11T20:41:43.544Z,57.45
2022-09-11T20:44:10.743Z,47.97
2022-09-11T20:46:37.667Z,60.53
2022-09-11T20:49:05.195Z,80.80
2022-09-11T20:51:34.608Z,77.32
2022-09-11T20:54:01.593Z,65.18
2022-09-11T20:56:28.639Z,85.95
2022-09-11T20:58:56.555Z,63.45
2022-09-11T21:01:25.922Z,72.00
2022-09-11T21:03:57.649Z,100.88
2022-09-11T21:06:28.369Z,57.25
2022-09-11T21:09:00.086Z,52.00
2022-09-11T21:11:29.675Z,70.30
2022-09-11T21:13:57.211Z,59.33
2022-09-11T21:16:24.187Z,57.25
2022-09-11T21:18:54.931Z,64.10
2022-09-11T21:21:23.243Z,75.85
2022-09-11T21:23:53.928Z,49.15
2022-09-11T21:26:20.885Z,71.25
2022-09-11T21:28:47.753Z,53.97
2022-09-11T21:31:14.710Z,63.53
2022-09-11T21:33:41.678Z,59.92
2022-09-11T21:36:08.817Z,58.88
2022-09-11T21:38:37.262Z,45.22
2022-09-11T21:41:07.361Z,53.25
2022-09-11T21:43:35.299Z,70.35
2022-09-11T21:46:04.821Z,74.72
2022-09-11T21:48:37.055Z,43.72
2022-09-11T21:51:18.667Z,56.45
2022-09-11T21:53:48.556Z,57.25
2022-09-11T21:56:31.333Z,67.95
2022-09-11T21:58:59.350Z,61.45
2022-09-11T22:01:28.006Z,53.28
2022-09-11T22:03:55.001Z,57.67
2022-09-11T22:06:24.504Z,54.15
2022-09-11T22:08:53.351Z,50.60
2022-09-11T22:11:21.006Z,64.53
2022-09-11T22:13:48.450Z,61.45
2022-09-11T22:16:19.238Z,68.75
2022-09-11T22:18:52.926Z,66.40
2022-09-11T22:21:20.183Z,57.40
2022-09-11T22:23:47.282Z,54.42
2022-09-11T22:26:19.189Z,54.97
2022-09-11T22:28:46.277Z,49.83
2022-09-11T22:31:18.403Z,59.03
2022-09-11T22:33:45.535Z,61.63
2022-09-11T22:36:25.867Z,81.68
2022-09-11T22:38:54.268Z,54.00
2022-09-11T22:41:22.717Z,65.28
2022-09-11T22:43:52.485Z,58.63
2022-09-11T22:46:21.098Z,73.05
2022-09-11T22:48:48.914Z,65.70
2022-09-11T22:51:16.686Z,54.55
2022-09-11T22:53:43.878Z,66.22
2022-09-11T22:56:11.359Z,53.25
2022-09-11T22:58:40.941Z,54.47
2022-09-11T23:01:10.662Z,65.45
2022-09-11T23:03:37.696Z,50.88
2022-09-11T23:06:23.584Z,57.08
2022-09-11T23:08:50.709Z,73.25
2022-09-11T23:11:20.460Z,46.70
2022-09-11T23:13:49.758Z,105.60
2022-09-11T23:16:26.767Z,65.38
2022-09-11T23:19:04.855Z,53.60
2022-09-11T23:21:35.510Z,92.15
2022-09-11T23:24:06.049Z,79.35
2022-09-11T23:26:33.747Z,75.53
2022-09-11T23:29:00.944Z,77.30
2022-09-11T23:31:31.429Z,97.78
2022-09-11T23:34:02.263Z,86.82
2022-09-11T23:36:30.596Z,93.07
2022-09-11T23:38:58.851Z,66.57
2022-09-11T23:41:26.282Z,114.90
2022-09-11T23:43:53.587Z,87.18
2022-09-11T23:46:20.926Z,103.03
2022-09-11T23:48:48.087Z,87.50
2022-09-11T23:51:15.872Z,78.40
2022-09-11T23:53:45.164Z,105.18
2022-09-11T23:56:14.412Z,74.70
2022-09-11T23:58:42.773Z,92.18
